Time;durP1;ratioP1;P1;durP2;ratioP2;P2;SDS_P1;SDS_P2;PMS_P1;PMS_P2;Temp;Humidity;BMP_temperature;BMP_pressure;BME280_temperature;BME280_humidity;BME280_pressure;Samples;Min_cycle;Max_cycle;Signal;HPM_P1;HPM_P2
2023/02/06 00:02:57;;;;;;;22.70;10.60;;;;;;;-2.87;78.22;102110.03;217977;1260;140364;-64
2023/02/06 00:08:03;;;;;;;34.80;13.70;;;;;;;-2.90;78.29;102111.40;217130;1263;139531;-65
2023/02/06 00:13:07;;;;;;;26.10;12.40;;;;;;;-2.87;78.03;102107.08;216959;1263;140771;-64
2023/02/06 00:18:11;;;;;;;25.10;13.00;;;;;;;-2.85;78.30;102099.24;217731;1263;139433;-64
2023/02/06 00:23:16;;;;;;;27.00;15.50;;;;;;;-2.87;77.97;102098.70;217506;1260;139068;-65
2023/02/06 00:28:20;;;;;;;22.10;12.10;;;;;;;-2.92;78.07;102096.91;218695;1260;138915;-61
2023/02/06 00:33:24;;;;;;;19.80;11.60;;;;;;;-2.98;77.96;102093.28;217217;1260;138665;-61
2023/02/06 00:38:28;;;;;;;23.30;11.20;;;;;;;-3.07;77.78;102100.89;217930;1260;139767;-62
2023/02/06 00:43:32;;;;;;;22.40;10.90;;;;;;;-3.15;78.18;102099.63;218263;1260;139255;-61
2023/02/06 00:48:36;;;;;;;25.90;14.60;;;;;;;-3.20;78.18;102090.01;217805;1261;139695;-62
2023/02/06 00:53:40;;;;;;;32.90;12.30;;;;;;;-3.19;78.15;102083.18;218199;1263;139688;-64
2023/02/06 00:58:43;;;;;;;23.00;13.00;;;;;;;-3.18;78.05;102087.96;217914;1263;139720;-62
2023/02/06 01:03:47;;;;;;;24.30;13.70;;;;;;;-3.17;78.09;102072.27;220078;1260;140416;-64
2023/02/06 01:08:51;;;;;;;25.10;13.40;;;;;;;-3.20;77.90;102077.69;220023;1263;138493;-64
2023/02/06 01:13:56;;;;;;;23.90;12.80;;;;;;;-3.20;78.27;102071.20;217575;1260;138634;-67
2023/02/06 01:19:04;;;;;;;29.50;12.80;;;;;;;-3.19;78.32;102060.39;217849;1259;139140;-63
2023/02/06 01:24:08;;;;;;;28.20;14.20;;;;;;;-3.21;78.17;102061.03;216909;1263;141190;-64
2023/02/06 01:29:13;;;;;;;27.70;11.30;;;;;;;-3.19;78.01;102052.89;218482;1263;141185;-65
2023/02/06 01:34:17;;;;;;;51.30;30.80;;;;;;;-3.14;78.13;102058.16;218503;1261;139359;-67
2023/02/06 01:39:22;;;;;;;36.20;18.60;;;;;;;-3.14;78.01;102048.45;217149;1263;138706;-65
2023/02/06 01:44:26;;;;;;;24.70;12.60;;;;;;;-3.17;78.12;102040.45;217992;1263;139100;-65
2023/02/06 01:49:39;;;;;;;19.20;10.60;;;;;;;-3.21;78.07;102042.06;218229;1261;141088;-67
2023/02/06 01:54:47;;;;;;;19.10;10.00;;;;;;;-3.30;77.90;102040.69;218326;1261;139625;-64
2023/02/06 01:59:56;;;;;;;18.30;9.90;;;;;;;-3.27;77.77;102045.23;217070;1263;141501;-64
2023/02/06 02:05:02;;;;;;;18.20;10.30;;;;;;;-3.27;77.49;102047.82;217176;1266;139802;-66
2023/02/06 02:10:07;;;;;;;28.10;14.50;;;;;;;-3.29;77.69;102059.39;217353;1260;141053;-65
2023/02/06 02:15:11;;;;;;;28.50;13.80;;;;;;;-3.34;77.88;102059.31;217269;1263;152364;-64
2023/02/06 02:20:58;;;;;;;26.10;13.40;;;;;;;-3.38;77.98;102066.20;217614;1261;138922;-65
2023/02/06 02:26:51;;;;;;;26.00;14.50;;;;;;;-3.38;78.19;102072.66;217210;1260;139161;-63
2023/02/06 02:32:13;;;;;;;25.30;11.90;;;;;;;-3.41;78.05;102074.73;217097;1264;139304;-65
2023/02/06 02:37:38;;;;;;;17.40;9.70;;;;;;;-3.45;78.12;102075.80;217476;1260;139810;-66
2023/02/06 02:43:03;;;;;;;22.60;14.50;;;;;;;-3.46;77.98;102075.03;218449;1261;140180;-65
2023/02/06 02:48:13;;;;;;;27.20;12.80;;;;;;;-3.39;78.14;102072.17;219437;1260;140308;-64
2023/02/06 02:53:19;;;;;;;23.70;11.60;;;;;;;-3.29;78.03;102069.52;219903;1261;139529;-65
2023/02/06 02:58:29;;;;;;;20.60;10.30;;;;;;;-3.25;77.87;102062.15;220043;1259;140026;-68
2023/02/06 03:03:39;;;;;;;23.90;10.70;;;;;;;-3.23;77.75;102060.96;218375;1257;140446;-67
2023/02/06 03:09:02;;;;;;;20.10;9.80;;;;;;;-3.25;77.64;102052.58;220328;1257;140779;-68
2023/02/06 03:14:11;;;;;;;19.80;10.40;;;;;;;-3.25;77.41;102045.95;218025;1257;140592;-66
2023/02/06 03:19:22;;;;;;;21.80;11.30;;;;;;;-3.21;77.40;102045.89;218755;1257;139733;-65
2023/02/06 03:24:31;;;;;;;11.70;8.30;;;;;;;-3.18;77.52;102038.44;218096;1257;140783;-66
2023/02/06 03:29:39;;;;;;;17.50;11.00;;;;;;;-3.21;77.63;102043.83;217484;1260;139999;-65
2023/02/06 03:34:58;;;;;;;15.90;9.40;;;;;;;-3.27;77.45;102041.36;218805;1261;139606;-66
2023/02/06 03:40:05;;;;;;;13.50;7.70;;;;;;;-3.35;77.62;102030.55;218414;1260;140212;-66
2023/02/06 03:45:14;;;;;;;23.30;12.10;;;;;;;-3.42;77.74;102033.91;217340;1257;139503;-66
2023/02/06 03:50:22;;;;;;;18.80;10.20;;;;;;;-3.40;77.55;102025.13;217720;1258;224772;-64
2023/02/06 03:55:27;;;;;;;19.70;10.20;;;;;;;-3.41;77.75;102022.20;217784;1257;140570;-63
2023/02/06 04:00:32;;;;;;;17.60;9.00;;;;;;;-3.43;77.83;102012.79;218138;1257;139749;-64
2023/02/06 04:05:37;;;;;;;17.80;9.20;;;;;;;-3.50;77.86;102006.57;217857;1257;138654;-63
2023/02/06 04:10:40;;;;;;;23.70;9.90;;;;;;;-3.57;77.79;102016.39;217538;1257;139635;-64
2023/02/06 04:15:48;;;;;;;16.40;8.40;;;;;;;-3.63;78.07;102024.20;217620;1257;220408;-65
2023/02/06 04:20:53;;;;;;;11.20;7.60;;;;;;;-3.67;78.11;102026.66;218287;1258;138831;-64
2023/02/06 04:25:58;;;;;;;15.80;9.30;;;;;;;-3.69;78.02;102023.38;218043;1257;141511;-67
2023/02/06 04:31:03;;;;;;;18.70;10.30;;;;;;;-3.64;78.09;102023.03;217647;1260;140453;-66
2023/02/06 04:36:07;;;;;;;18.30;9.80;;;;;;;-3.64;78.11;102021.67;218314;1257;139825;-66
2023/02/06 04:41:12;;;;;;;18.30;8.80;;;;;;;-3.65;78.19;102021.34;217877;1258;151466;-66
2023/02/06 04:46:17;;;;;;;20.60;11.70;;;;;;;-3.68;78.14;102022.76;219073;1257;138745;-66
2023/02/06 04:51:21;;;;;;;21.10;9.90;;;;;;;-3.68;78.29;102024.34;218441;1257;140015;-65
2023/02/06 04:56:25;;;;;;;23.30;9.40;;;;;;;-3.69;78.15;102021.23;218737;1257;139405;-65
2023/02/06 05:01:29;;;;;;;24.20;13.30;;;;;;;-3.74;78.29;102024.13;220090;1258;140497;-66
2023/02/06 05:06:35;;;;;;;25.70;10.60;;;;;;;-3.71;78.12;102025.55;220093;1257;140368;-66
2023/02/06 05:11:39;;;;;;;26.40;12.20;;;;;;;-3.65;78.04;102022.59;218518;1257;139987;-65
2023/02/06 05:16:44;;;;;;;21.20;11.50;;;;;;;-3.67;77.95;102024.96;217756;1257;139368;-64
2023/02/06 05:21:49;;;;;;;18.30;8.90;;;;;;;-3.73;77.95;102025.12;217378;1257;139412;-64
2023/02/06 05:26:56;;;;;;;25.10;12.00;;;;;;;-3.83;77.79;102023.06;218128;1257;139864;-65
2023/02/06 05:32:02;;;;;;;24.40;13.50;;;;;;;-3.92;77.99;102028.41;217480;1257;140333;-64
2023/02/06 05:37:06;;;;;;;24.20;12.00;;;;;;;-4.05;77.96;102032.30;218420;1256;141199;-63
2023/02/06 05:42:10;;;;;;;12.40;8.30;;;;;;;-4.17;77.88;102039.40;217651;1260;140414;-64
2023/02/06 05:47:16;;;;;;;19.20;10.80;;;;;;;-4.31;77.95;102035.85;217517;1257;140508;-66
2023/02/06 05:52:20;;;;;;;23.20;11.80;;;;;;;-4.42;77.80;102040.75;218048;1257;140186;-66
2023/02/06 05:57:25;;;;;;;19.40;10.70;;;;;;;-4.53;77.82;102044.10;217462;1260;139263;-64
2023/02/06 06:02:29;;;;;;;17.00;10.70;;;;;;;-4.69;77.85;102042.73;217584;1257;141262;-64
2023/02/06 06:07:33;;;;;;;16.10;8.60;;;;;;;-4.78;78.06;102048.90;218286;1257;139682;-65
2023/02/06 06:12:37;;;;;;;23.30;12.10;;;;;;;-4.91;78.10;102058.59;217586;1257;139830;-65
2023/02/06 06:17:41;;;;;;;19.70;11.20;;;;;;;-4.94;78.27;102058.92;218693;1258;140629;-66
2023/02/06 06:22:45;;;;;;;21.20;10.10;;;;;;;-4.90;78.57;102051.62;217603;1257;140113;-66
2023/02/06 06:27:49;;;;;;;22.90;12.30;;;;;;;-4.94;78.45;102054.25;217503;1257;139275;-66
2023/02/06 06:32:53;;;;;;;21.10;10.50;;;;;;;-4.97;79.07;102057.38;220115;1256;139440;-67
2023/02/06 06:37:58;;;;;;;27.20;15.00;;;;;;;-4.97;78.84;102059.79;220140;1257;139571;-67
2023/02/06 06:43:03;;;;;;;43.10;14.30;;;;;;;-4.97;78.31;102054.08;220080;1257;140969;-66
2023/02/06 06:48:07;;;;;;;51.70;20.50;;;;;;;-4.98;78.11;102061.56;220259;1257;140857;-66
2023/02/06 06:53:10;;;;;;;37.20;17.20;;;;;;;-4.92;78.78;102066.79;220289;1256;139075;-66
2023/02/06 06:58:15;;;;;;;33.90;16.20;;;;;;;-4.77;78.89;102070.02;219604;1257;139270;-66
2023/02/06 07:03:20;;;;;;;42.50;18.60;;;;;;;-4.64;79.28;102068.45;219200;1256;139425;-64
2023/02/06 07:08:28;;;;;;;37.40;15.10;;;;;;;-4.50;79.38;102069.77;217547;1257;138800;-65
2023/02/06 07:13:57;;;;;;;55.60;21.70;;;;;;;-4.35;79.34;102071.27;219098;1257;140644;-64
2023/02/06 07:19:01;;;;;;;44.40;18.70;;;;;;;-4.13;79.06;102069.38;217453;1258;140651;-64
2023/02/06 07:24:05;;;;;;;36.10;16.30;;;;;;;-3.73;79.13;102067.30;219268;1258;139347;-65
2023/02/06 07:29:10;;;;;;;31.90;17.60;;;;;;;-3.42;78.96;102076.52;217942;1256;139937;-65
2023/02/06 07:34:15;;;;;;;30.30;15.90;;;;;;;-3.29;78.65;102081.51;217505;1257;140432;-67
2023/02/06 07:39:20;;;;;;;28.10;15.20;;;;;;;-3.25;78.74;102083.54;218071;1256;139786;-63
2023/02/06 07:44:24;;;;;;;30.70;17.20;;;;;;;-3.03;78.68;102090.05;218293;1258;139612;-64
2023/02/06 07:49:29;;;;;;;29.50;17.20;;;;;;;-2.69;78.69;102092.92;217531;1257;142099;-64
2023/02/06 07:54:34;;;;;;;34.00;17.50;;;;;;;-2.31;78.41;102086.60;217908;1256;139280;-63
2023/02/06 07:59:39;;;;;;;32.20;16.70;;;;;;;-2.12;78.12;102087.64;217484;1256;140093;-63
2023/02/06 08:04:43;;;;;;;34.70;17.40;;;;;;;-2.07;77.58;102073.23;218637;1260;139299;-66
2023/02/06 08:09:47;;;;;;;33.00;17.70;;;;;;;-2.02;77.44;102074.88;217590;1257;140371;-64
2023/02/06 08:14:52;;;;;;;39.80;20.20;;;;;;;-2.04;77.27;102082.14;218685;1260;139835;-64
2023/02/06 08:19:57;;;;;;;38.70;19.90;;;;;;;-1.98;77.38;102083.82;218354;1256;139136;-63
2023/02/06 08:25:03;;;;;;;35.30;19.00;;;;;;;-1.85;77.04;102091.55;218526;1256;139152;-64
2023/02/06 08:30:09;;;;;;;31.40;17.20;;;;;;;-1.74;76.80;102088.04;218569;1259;139845;-68
2023/02/06 08:35:13;;;;;;;48.70;23.00;;;;;;;-1.66;76.58;102076.41;217916;1257;139738;-67
2023/02/06 08:40:20;;;;;;;39.30;21.60;;;;;;;-1.53;76.38;102077.45;218062;1257;139612;-66
2023/02/06 08:45:25;;;;;;;42.00;25.60;;;;;;;-1.30;76.80;102074.70;219471;1257;139333;-66
2023/02/06 08:50:29;;;;;;;45.80;24.30;;;;;;;-1.12;76.63;102065.11;220141;1256;141522;-65
2023/02/06 08:55:34;;;;;;;48.80;25.20;;;;;;;-0.99;76.49;102069.16;219270;1256;139491;-64
2023/02/06 09:00:38;;;;;;;56.50;27.80;;;;;;;-0.91;76.64;102073.52;219559;1256;139653;-63
2023/02/06 09:05:43;;;;;;;49.50;26.80;;;;;;;-0.74;76.13;102070.58;218062;1256;139424;-63
2023/02/06 09:10:47;;;;;;;54.80;28.00;;;;;;;-0.61;75.69;102076.15;218516;1257;139715;-65
2023/02/06 09:15:53;;;;;;;55.70;28.10;;;;;;;-0.49;75.79;102071.33;218595;1260;140138;-65
2023/02/06 09:21:06;;;;;;;43.10;23.70;;;;;;;-0.33;75.67;102080.29;219289;1256;139789;-66
2023/02/06 09:26:14;;;;;;;48.20;26.20;;;;;;;-0.18;75.41;102081.52;219270;1256;140001;-64
2023/02/06 09:31:19;;;;;;;45.20;26.10;;;;;;;-0.02;75.18;102084.79;218449;1260;139127;-65
2023/02/06 09:36:26;;;;;;;49.20;25.60;;;;;;;0.18;74.71;102083.48;218512;1257;139792;-66
2023/02/06 09:41:37;;;;;;;49.30;25.10;;;;;;;0.48;75.20;102086.58;217578;1256;140142;-64
2023/02/06 09:46:54;;;;;;;37.40;23.20;;;;;;;0.53;74.52;102088.98;217616;1260;139387;-64
2023/02/06 09:52:21;;;;;;;39.70;24.10;;;;;;;0.55;74.61;102094.61;218573;1257;139087;-67
2023/02/06 09:57:38;;;;;;;38.10;21.70;;;;;;;0.60;74.35;102086.05;217423;1257;141277;-66
2023/02/06 10:03:19;;;;;;;48.00;24.30;;;;;;;0.60;74.28;102088.85;217281;1259;139418;-67
2023/02/06 10:08:56;;;;;;;42.70;22.60;;;;;;;0.61;74.32;102091.20;217426;1256;140036;-62
2023/02/06 10:14:05;;;;;;;40.40;19.30;;;;;;;0.74;73.71;102093.02;217590;1256;139359;-63
2023/02/06 10:19:28;;;;;;;47.00;22.20;;;;;;;0.72;73.95;102087.38;218925;1256;139431;-64
2023/02/06 10:25:10;;;;;;;31.70;19.10;;;;;;;0.92;73.81;102088.33;218469;1256;139702;-62
2023/02/06 10:30:18;;;;;;;40.10;21.00;;;;;;;0.97;73.20;102092.16;218480;1255;139481;-62
2023/02/06 10:35:57;;;;;;;39.30;21.00;;;;;;;0.93;73.30;102088.48;219444;1256;139765;-63
2023/02/06 10:41:36;;;;;;;38.20;17.90;;;;;;;1.12;73.92;102077.41;220026;1256;139267;-65
2023/02/06 10:46:47;;;;;;;38.00;20.20;;;;;;;1.43;72.97;102070.79;218712;1255;139239;-66
2023/02/06 10:51:58;;;;;;;35.80;20.20;;;;;;;1.55;72.58;102074.76;220488;1255;140412;-65
2023/02/06 10:57:10;;;;;;;39.20;22.30;;;;;;;1.81;72.46;102075.72;219281;1256;141323;-66
2023/02/06 11:02:20;;;;;;;38.90;21.00;;;;;;;1.88;72.20;102075.28;220540;1255;139783;-65
2023/02/06 11:07:28;;;;;;;32.10;19.30;;;;;;;2.20;72.26;102074.02;219390;1256;628790;-71
2023/02/06 11:12:40;;;;;;;40.00;21.80;;;;;;;2.60;71.95;102080.04;218363;1257;140208;-69
2023/02/06 11:17:44;;;;;;;40.90;23.30;;;;;;;3.07;71.68;102071.52;217657;1257;139519;-64
2023/02/06 11:22:49;;;;;;;33.00;18.30;;;;;;;3.32;70.90;102072.90;217906;1259;140452;-65
2023/02/06 11:27:58;;;;;;;35.50;20.20;;;;;;;3.35;70.53;102070.98;218195;1256;139519;-66
2023/02/06 11:33:21;;;;;;;;;;;;;;;3.27;70.23;102070.56;218203;1254;140115;-66
2023/02/06 11:38:30;;;;;;;37.00;19.30;;;;;;;3.28;70.38;102078.17;218421;1256;125223;-64
2023/02/06 11:44:05;;;;;;;29.20;17.20;;;;;;;3.48;70.46;102067.63;218576;1259;140063;-65
2023/02/06 11:49:27;;;;;;;33.30;20.00;;;;;;;3.37;69.64;102064.00;218058;1256;139839;-66
2023/02/06 11:54:34;;;;;;;35.00;22.50;;;;;;;3.04;69.63;102068.78;218556;1256;139116;-65
2023/02/06 11:59:53;;;;;;;30.70;18.10;;;;;;;2.81;69.82;102073.55;218240;1256;139405;-66
2023/02/06 12:05:23;;;;;;;33.70;18.80;;;;;;;2.58;69.53;102074.41;218259;1257;139236;-66
2023/02/06 12:10:34;;;;;;;25.60;14.50;;;;;;;2.63;69.59;102071.20;217854;1257;139360;-66
2023/02/06 12:15:46;;;;;;;22.40;12.80;;;;;;;2.57;69.49;102070.56;218253;1256;140191;-65
2023/02/06 12:20:58;;;;;;;25.00;14.60;;;;;;;2.63;68.86;102067.96;218482;1258;139152;-64
2023/02/06 12:26:07;;;;;;;23.80;15.70;;;;;;;2.47;68.57;102067.52;219278;1256;139486;-65
2023/02/06 12:31:46;;;;;;;31.60;15.10;;;;;;;2.26;68.84;102066.98;217764;1257;139695;-63
2023/02/06 12:37:34;;;;;;;31.70;17.60;;;;;;;2.06;68.74;102066.89;218412;1256;139767;-66
2023/02/06 12:42:52;;;;;;;35.50;17.80;;;;;;;2.08;69.07;102066.34;220315;1256;140023;-67
2023/02/06 12:48:27;;;;;;;35.10;19.80;;;;;;;2.04;68.82;102074.05;220271;1256;140525;-66
2023/02/06 12:53:58;;;;;;;24.50;16.50;;;;;;;2.07;68.98;102075.05;219379;1256;138991;-65
2023/02/06 12:59:06;;;;;;;21.20;10.80;;;;;;;2.31;68.84;102069.34;220054;1256;139317;-67
2023/02/06 13:04:22;;;;;;;14.40;7.70;;;;;;;2.26;68.27;102072.23;219679;1256;140882;-64
2023/02/06 13:09:35;;;;;;;10.60;6.00;;;;;;;2.20;67.34;102073.77;218435;1255;139567;-66
2023/02/06 13:14:51;;;;;;;17.80;8.40;;;;;;;2.19;66.95;102067.92;219657;1256;141039;-67
2023/02/06 13:20:06;;;;;;;9.60;6.40;;;;;;;2.08;66.30;102071.42;217921;1256;139400;-67
2023/02/06 13:25:26;;;;;;;10.40;5.80;;;;;;;1.88;66.42;102076.55;218021;1256;139408;-66
2023/02/06 13:30:31;;;;;;;7.80;5.60;;;;;;;1.69;65.94;102067.91;218221;1259;138807;-64
2023/02/06 13:36:02;;;;;;;11.60;6.40;;;;;;;1.51;65.98;102058.73;217953;1256;140642;-65
2023/02/06 13:41:13;;;;;;;14.10;9.10;;;;;;;1.31;65.79;102064.86;217762;1257;139550;-63
2023/02/06 13:46:31;;;;;;;20.50;13.40;;;;;;;1.17;66.58;102067.41;218053;1259;138929;-65
2023/02/06 13:51:47;;;;;;;29.20;15.60;;;;;;;1.15;67.03;102061.39;217980;1257;140180;-64
2023/02/06 13:57:10;;;;;;;33.40;16.30;;;;;;;1.41;67.39;102056.03;217645;1257;141426;-65
2023/02/06 14:02:26;;;;;;;12.70;8.20;;;;;;;1.63;67.09;102062.91;217771;1257;140419;-66
2023/02/06 14:08:12;;;;;;;18.30;6.80;;;;;;;1.69;66.25;102072.23;217794;1258;139115;-63
2023/02/06 14:13:27;;;;;;;19.00;9.90;;;;;;;1.58;66.11;102065.19;218412;1259;140461;-67
2023/02/06 14:18:41;;;;;;;19.40;11.60;;;;;;;1.37;65.92;102072.49;219859;1256;139556;-67
2023/02/06 14:24:33;;;;;;;23.30;13.70;;;;;;;1.15;66.16;102077.98;219115;1256;138973;-68
2023/02/06 14:29:44;;;;;;;22.00;11.70;;;;;;;0.89;66.57;102080.52;219424;1256;139554;-64
2023/02/06 14:35:10;;;;;;;28.60;14.90;;;;;;;0.71;66.52;102085.60;218986;1257;139573;-63
2023/02/06 14:40:28;;;;;;;27.80;14.70;;;;;;;0.49;67.29;102081.63;219548;1257;139936;-67
2023/02/06 14:45:38;;;;;;;;;;;;;;;0.33;67.26;102088.53;219589;1257;140019;-66
2023/02/06 14:50:51;;;;;;;27.80;15.30;;;;;;;0.19;67.33;102091.31;220743;1256;125284;-66
2023/02/06 14:56:13;;;;;;;20.30;13.10;;;;;;;0.14;67.74;102087.27;218917;1257;140777;-64
2023/02/06 15:01:26;;;;;;;26.40;15.40;;;;;;;0.06;67.45;102091.67;218495;1257;139610;-65
2023/02/06 15:06:37;;;;;;;35.00;17.60;;;;;;;-0.04;68.14;102094.20;218156;1257;140322;-62
2023/02/06 15:11:49;;;;;;;36.90;18.60;;;;;;;-0.13;68.50;102105.83;218457;1259;139132;-65
2023/02/06 15:16:58;;;;;;;41.20;20.90;;;;;;;-0.24;69.00;102109.37;218011;1257;139048;-64
2023/02/06 15:22:14;;;;;;;37.50;21.00;;;;;;;-0.42;69.02;102117.09;218256;1257;139652;-65
2023/02/06 15:27:29;;;;;;;31.60;18.70;;;;;;;-0.60;69.44;102119.73;218089;1259;141496;-62
2023/02/06 15:32:39;;;;;;;30.60;17.80;;;;;;;-0.77;69.78;102120.92;219241;1257;139334;-64
2023/02/06 15:37:43;;;;;;;32.00;18.40;;;;;;;-0.98;69.99;102117.98;217788;1257;140278;-65
2023/02/06 15:42:49;;;;;;;30.90;17.60;;;;;;;-1.19;70.07;102126.48;217672;1259;139075;-62
2023/02/06 15:47:54;;;;;;;30.80;17.80;;;;;;;-1.34;70.53;102131.87;217608;1255;139711;-63
2023/02/06 15:54:28;;;;;;;22.70;14.30;;;;;;;-1.44;70.75;102126.38;214663;1296;658653;-66
2023/02/06 15:59:39;;;;;;;31.30;15.00;;;;;;;-1.59;70.72;102131.20;216279;1270;139275;-67
2023/02/06 16:04:51;;;;;;;24.60;15.30;;;;;;;-1.81;70.61;102143.59;217893;1267;371149;-67
2023/02/06 16:10:03;;;;;;;27.20;17.80;;;;;;;-2.11;70.68;102159.04;217205;1267;139150;-67
2023/02/06 16:15:36;;;;;;;31.40;15.20;;;;;;;-2.28;71.27;102159.56;219089;1267;140147;-67
2023/02/06 16:20:42;;;;;;;26.80;13.70;;;;;;;-2.50;71.33;102162.45;218996;1254;138902;-63
2023/02/06 16:26:13;;;;;;;33.00;16.30;;;;;;;-2.72;71.32;102173.67;220820;1259;138405;-67
2023/02/06 16:31:17;;;;;;;32.60;17.00;;;;;;;-2.82;71.75;102184.34;220749;1255;139807;-67
2023/02/06 16:36:24;;;;;;;30.10;14.80;;;;;;;-2.87;71.95;102191.59;220461;1254;139734;-67
2023/02/06 16:41:37;;;;;;;36.90;20.60;;;;;;;-2.94;72.24;102192.70;218304;1254;139866;-64
2023/02/06 16:46:43;;;;;;;33.80;15.70;;;;;;;-3.04;72.35;102190.50;220013;1254;140615;-67
2023/02/06 16:51:51;;;;;;;22.60;13.90;;;;;;;-3.24;72.34;102190.59;219328;1254;139030;-65
2023/02/06 16:57:08;;;;;;;26.30;14.50;;;;;;;-3.42;72.67;102190.40;219829;1257;140138;-65
2023/02/06 17:02:13;;;;;;;35.80;18.00;;;;;;;-3.58;72.86;102189.71;219210;1255;139733;-62
2023/02/06 17:07:21;;;;;;;30.70;16.90;;;;;;;-3.82;72.53;102190.45;218941;1254;141388;-66
2023/02/06 17:12:27;;;;;;;30.00;16.80;;;;;;;-3.95;73.17;102189.06;218469;1254;139801;-67
2023/02/06 17:17:32;;;;;;;36.40;16.80;;;;;;;-3.99;73.45;102192.95;218274;1254;140476;-65
2023/02/06 17:22:36;;;;;;;34.00;17.90;;;;;;;-4.09;73.49;102198.17;218820;1257;139203;-63
2023/02/06 17:27:42;;;;;;;30.40;19.50;;;;;;;-4.20;73.66;102201.55;219272;1257;138678;-62
2023/02/06 17:32:47;;;;;;;26.00;12.60;;;;;;;-4.29;73.93;102209.14;217832;1258;139358;-66
2023/02/06 17:37:53;;;;;;;28.30;16.00;;;;;;;-4.49;73.56;102227.30;218727;1257;138969;-65
2023/02/06 17:42:58;;;;;;;33.30;17.30;;;;;;;-4.59;73.67;102242.04;218309;1258;139558;-65
2023/02/06 17:48:06;;;;;;;33.00;17.00;;;;;;;-4.57;74.04;102243.84;218334;1257;141128;-66
2023/02/06 17:53:13;;;;;;;33.70;19.50;;;;;;;-4.66;74.16;102231.85;219747;1257;139957;-65
2023/02/06 17:58:18;;;;;;;30.20;15.40;;;;;;;-4.80;74.41;102226.63;219737;1254;139293;-64
2023/02/06 18:03:24;;;;;;;27.90;14.90;;;;;;;-4.95;74.16;102233.77;219466;1253;140385;-61
2023/02/06 18:08:30;;;;;;;29.20;14.40;;;;;;;-5.07;74.56;102234.02;218053;1254;140089;-62
2023/02/06 18:13:34;;;;;;;37.30;17.20;;;;;;;-5.22;74.33;102236.11;219767;1254;139785;-62
2023/02/06 18:18:39;;;;;;;32.80;14.90;;;;;;;-5.37;74.17;102240.77;219830;1254;139914;-63
2023/02/06 18:23:45;;;;;;;31.60;15.00;;;;;;;-5.46;74.24;102237.37;220406;1254;139005;-62
2023/02/06 18:28:51;;;;;;;29.70;15.30;;;;;;;-5.60;74.16;102225.95;221121;1253;139200;-65
2023/02/06 18:33:57;;;;;;;25.70;14.90;;;;;;;-5.74;74.55;102221.35;220988;1253;139180;-65
2023/02/06 18:39:03;;;;;;;32.80;15.30;;;;;;;-5.78;74.93;102220.16;220957;1254;140215;-64
2023/02/06 18:44:10;;;;;;;33.20;15.40;;;;;;;-5.81;75.17;102222.86;219961;1253;140820;-66
2023/02/06 18:49:16;;;;;;;45.60;20.10;;;;;;;-5.89;74.82;102218.80;220189;1253;140952;-63
2023/02/06 18:54:20;;;;;;;44.30;19.30;;;;;;;-5.97;74.90;102224.16;218944;1257;140460;-65
2023/02/06 18:59:26;;;;;;;35.50;19.10;;;;;;;-6.03;74.96;102216.64;219251;1257;139396;-64
2023/02/06 19:04:34;;;;;;;30.10;14.80;;;;;;;-6.13;74.92;102206.70;219938;1254;230751;-64
2023/02/06 19:09:40;;;;;;;37.90;14.40;;;;;;;-6.28;75.14;102204.76;218857;1254;140119;-64
2023/02/06 19:14:45;;;;;;;29.60;12.70;;;;;;;-6.39;75.37;102213.04;219312;1253;141391;-65
2023/02/06 19:19:50;;;;;;;32.10;16.10;;;;;;;-6.48;75.26;102205.80;218200;1256;140481;-65
2023/02/06 19:24:55;;;;;;;35.20;16.70;;;;;;;-6.60;75.21;102207.51;218159;1257;139836;-62
2023/02/06 19:30:06;;;;;;;34.70;16.40;;;;;;;-6.62;75.54;102219.72;218405;1253;139706;-64
2023/02/06 19:35:16;;;;;;;36.10;16.70;;;;;;;-6.61;76.02;102236.95;219178;1254;140025;-61
2023/02/06 19:40:21;;;;;;;39.30;18.00;;;;;;;-6.70;75.58;102236.14;218973;1253;138971;-66
2023/02/06 19:45:25;;;;;;;31.90;15.00;;;;;;;-6.82;75.68;102239.73;218416;1254;139391;-71
2023/02/06 19:50:33;;;;;;;34.60;17.70;;;;;;;-6.90;76.03;102243.86;218736;1254;139616;-64
2023/02/06 19:55:46;;;;;;;36.30;17.60;;;;;;;-6.97;75.68;102243.10;218889;1257;140917;-65
2023/02/06 20:00:53;;;;;;;41.50;19.90;;;;;;;-7.04;75.73;102243.41;220355;1253;209430;-64
2023/02/06 20:06:04;;;;;;;32.00;18.30;;;;;;;-7.12;75.72;102241.98;218669;1252;139438;-67
2023/02/06 20:11:14;;;;;;;29.60;12.80;;;;;;;-7.19;75.83;102241.20;220460;1256;140059;-62
2023/02/06 20:16:22;;;;;;;35.10;15.80;;;;;;;-7.34;75.79;102243.72;220176;1254;139256;-66
2023/02/06 20:21:33;;;;;;;27.60;16.40;;;;;;;-7.45;76.07;102249.48;219020;1253;143530;-64
2023/02/06 20:26:40;;;;;;;38.50;17.00;;;;;;;-7.52;75.93;102254.05;221068;1254;151199;-64
2023/02/06 20:31:44;;;;;;;45.90;22.70;;;;;;;-7.58;75.85;102261.36;220438;1254;140569;-63
2023/02/06 20:36:49;;;;;;;57.10;23.30;;;;;;;-7.58;75.92;102269.65;220347;1253;140149;-64
2023/02/06 20:41:54;;;;;;;63.50;25.60;;;;;;;-7.69;75.87;102267.14;219700;1254;139504;-66
2023/02/06 20:46:59;;;;;;;50.40;23.20;;;;;;;-7.77;76.03;102268.80;220508;1257;139414;-66
2023/02/06 20:52:05;;;;;;;49.40;20.30;;;;;;;-7.78;76.30;102291.30;219809;1253;139898;-65
2023/02/06 20:57:10;;;;;;;50.40;22.10;;;;;;;-7.78;75.93;102292.86;220019;1254;140845;-64
2023/02/06 21:02:15;;;;;;;99.50;34.00;;;;;;;-7.83;75.91;102297.33;219290;1253;140383;-63
2023/02/06 21:07:19;;;;;;;103.70;37.90;;;;;;;-7.86;75.84;102289.14;219650;1254;141037;-62
2023/02/06 21:12:25;;;;;;;60.50;27.30;;;;;;;-7.89;76.19;102281.32;219380;1255;139918;-64
2023/02/06 21:17:30;;;;;;;72.10;34.00;;;;;;;-7.81;76.41;102291.56;219110;1256;139963;-63
2023/02/06 21:22:36;;;;;;;135.60;42.90;;;;;;;-7.72;76.45;102300.91;218875;1254;140771;-61
2023/02/06 21:27:41;;;;;;;118.20;40.40;;;;;;;-7.67;76.23;102306.60;218511;1254;140200;-62
2023/02/06 21:32:46;;;;;;;72.60;28.60;;;;;;;-7.72;75.69;102301.77;219874;1256;140364;-66
2023/02/06 21:37:51;;;;;;;56.10;27.00;;;;;;;-7.89;75.36;102295.09;218330;1257;139582;-60
2023/02/06 21:42:55;;;;;;;58.00;24.80;;;;;;;-8.10;75.24;102285.16;219102;1254;140320;-64
2023/02/06 21:48:00;;;;;;;58.50;25.20;;;;;;;-8.16;75.75;102284.86;218609;1254;140531;-66
2023/02/06 21:53:04;;;;;;;89.70;30.90;;;;;;;-8.22;75.54;102287.13;218843;1254;140121;-64
2023/02/06 21:58:08;;;;;;;72.30;29.70;;;;;;;-8.28;75.83;102294.79;219391;1254;139944;-68
2023/02/06 22:03:13;;;;;;;82.60;32.40;;;;;;;-8.31;75.77;102297.27;219994;1254;139775;-67
2023/02/06 22:08:18;;;;;;;77.50;33.90;;;;;;;-8.29;75.90;102294.96;220170;1257;140079;-66
2023/02/06 22:13:23;;;;;;;92.60;34.90;;;;;;;-8.23;76.10;102290.27;220073;1254;139878;-67
2023/02/06 22:18:27;;;;;;;91.40;38.90;;;;;;;-8.35;75.94;102286.05;220934;1253;139344;-63
2023/02/06 22:23:35;;;;;;;89.60;34.30;;;;;;;-8.43;76.21;102280.83;220155;1253;140406;-66
2023/02/06 22:28:40;;;;;;;68.70;28.20;;;;;;;-8.48;76.31;102278.71;220004;1254;140537;-67
2023/02/06 22:33:45;;;;;;;93.90;39.70;;;;;;;-8.57;76.17;102278.02;219858;1256;139352;-64
2023/02/06 22:38:58;;;;;;;89.20;32.80;;;;;;;-8.61;76.13;102292.44;220795;1254;140390;-65
2023/02/06 22:44:02;;;;;;;96.40;40.40;;;;;;;-8.48;76.57;102292.69;219082;1254;140510;-60
2023/02/06 22:49:08;;;;;;;93.80;39.20;;;;;;;-8.36;76.59;102298.85;219937;1256;141577;-63
2023/02/06 22:54:13;;;;;;;102.60;41.80;;;;;;;-8.25;76.65;102302.25;219807;1257;141970;-61
2023/02/06 22:59:23;;;;;;;117.00;45.50;;;;;;;-8.23;76.17;102296.47;218403;1257;139935;-65
2023/02/06 23:04:34;;;;;;;106.40;43.40;;;;;;;-8.31;75.97;102298.51;219523;1257;139880;-63